Time;durP1;ratioP1;P1;durP2;ratioP2;P2;SDS_P1;SDS_P2;PMS_P1;PMS_P2;Temp;Humidity;BMP_temperature;BMP_pressure;BME280_temperature;BME280_humidity;BME280_pressure;Samples;Min_cycle;Max_cycle;Signal;HPM_P1;HPM_P2
2021/05/03 00:00:14;;;;;;;1.83;0.82;;;6.20;72.00;;;;;;2071756;28;20099;-85
2021/05/03 00:01:15;;;;;;;1.52;1.00;;;6.20;72.00;;;;;;2072191;28;20101;-84
2021/05/03 00:02:16;;;;;;;1.95;0.90;;;6.20;72.00;;;;;;2071366;28;20030;-85
2021/05/03 00:03:16;;;;;;;2.65;1.10;;;6.20;72.00;;;;;;2064442;28;20033;-85
2021/05/03 00:04:17;;;;;;;2.10;1.10;;;6.20;72.00;;;;;;2064133;28;20022;-84
2021/05/03 00:05:26;;;;;;;1.50;1.00;;;6.30;72.10;;;;;;2062315;28;20042;-85
2021/05/03 00:06:27;;;;;;;1.67;1.00;;;6.20;72.10;;;;;;2073672;28;20153;-85
2021/05/03 00:07:27;;;;;;;1.42;1.00;;;6.20;72.10;;;;;;2071302;28;20030;-85
2021/05/03 00:08:28;;;;;;;1.65;1.00;;;6.20;72.20;;;;;;2071924;28;20483;-85
2021/05/03 00:09:28;;;;;;;1.70;1.20;;;6.20;72.30;;;;;;2083510;28;20076;-84
2021/05/03 00:10:29;;;;;;;1.40;1.00;;;6.10;72.30;;;;;;2076192;28;20025;-83
2021/05/03 00:11:30;;;;;;;2.55;1.23;;;6.20;72.40;;;;;;2052630;28;20138;-84
2021/05/03 00:12:30;;;;;;;1.70;1.00;;;6.20;72.50;;;;;;2046457;28;20023;-84
2021/05/03 00:13:31;;;;;;;1.70;1.10;;;6.10;72.40;;;;;;2061256;28;20042;-84
2021/05/03 00:14:33;;;;;;;2.00;1.17;;;6.10;72.50;;;;;;2070822;28;20404;-84
2021/05/03 00:15:33;;;;;;;2.47;1.13;;;6.10;72.60;;;;;;2059879;28;20062;-85
2021/05/03 00:16:34;;;;;;;1.75;1.00;;;6.10;72.60;;;;;;2046788;28;20026;-85
2021/05/03 00:17:34;;;;;;;1.35;1.00;;;6.10;72.70;;;;;;2064228;28;21476;-84
2021/05/03 00:18:35;;;;;;;2.58;1.20;;;6.10;72.70;;;;;;2052737;28;20577;-84
2021/05/03 00:19:36;;;;;;;2.08;1.00;;;6.10;72.80;;;;;;2062129;28;20488;-84
2021/05/03 00:20:37;;;;;;;1.92;1.00;;;6.10;72.90;;;;;;2063860;28;20027;-85
2021/05/03 00:21:38;;;;;;;2.40;1.30;;;6.10;72.90;;;;;;2070089;28;20028;-84
2021/05/03 00:22:39;;;;;;;2.40;1.08;;;6.00;72.90;;;;;;2071850;28;20116;-85
2021/05/03 00:23:39;;;;;;;1.80;1.00;;;6.00;73.00;;;;;;2080566;28;20488;-85
2021/05/03 00:24:40;;;;;;;1.63;1.08;;;6.00;73.00;;;;;;2092565;28;20012;-84
2021/05/03 00:25:41;;;;;;;2.25;1.25;;;6.00;73.10;;;;;;2082367;28;20037;-83
2021/05/03 00:26:42;;;;;;;2.05;1.20;;;6.00;73.10;;;;;;2079012;28;20442;-84
2021/05/03 00:27:42;;;;;;;1.85;1.10;;;6.00;73.10;;;;;;2088655;28;20067;-85
2021/05/03 00:28:43;;;;;;;1.40;0.98;;;6.00;73.20;;;;;;2071213;28;20026;-85
2021/05/03 00:29:44;;;;;;;2.03;1.10;;;6.00;73.20;;;;;;2063277;28;20031;-85
2021/05/03 00:30:44;;;;;;;2.47;0.98;;;6.00;73.30;;;;;;2071861;28;20113;-85
2021/05/03 00:31:45;;;;;;;2.50;1.23;;;6.00;73.30;;;;;;2078979;28;20041;-85
2021/05/03 00:32:47;;;;;;;1.88;1.00;;;5.90;73.30;;;;;;2079480;28;20088;-85
2021/05/03 00:33:47;;;;;;;3.10;1.25;;;5.90;73.30;;;;;;2063152;28;20026;-85
2021/05/03 00:34:48;;;;;;;1.95;1.10;;;5.90;73.40;;;;;;2049441;28;20031;-85
2021/05/03 00:35:48;;;;;;;1.90;1.13;;;5.90;73.40;;;;;;2061683;28;20033;-85
2021/05/03 00:36:49;;;;;;;1.83;1.25;;;5.90;73.50;;;;;;2067951;28;20027;-84
2021/05/03 00:37:50;;;;;;;2.42;1.20;;;5.80;73.40;;;;;;2075439;28;20091;-85
2021/05/03 00:38:50;;;;;;;1.92;1.02;;;5.80;73.50;;;;;;2070484;28;20116;-84
2021/05/03 00:39:51;;;;;;;2.35;1.35;;;5.80;73.60;;;;;;2070431;28;20044;-84
2021/05/03 00:40:52;;;;;;;1.60;1.10;;;5.80;73.70;;;;;;2063657;28;20026;-85
2021/05/03 00:41:53;;;;;;;2.25;1.23;;;5.70;73.70;;;;;;2079042;28;20022;-85
2021/05/03 00:42:53;;;;;;;2.85;1.10;;;5.70;73.80;;;;;;2070653;28;20088;-84
2021/05/03 00:43:54;;;;;;;2.03;1.30;;;5.70;74.00;;;;;;2072981;28;20504;-85
2021/05/03 00:44:55;;;;;;;2.13;1.20;;;5.60;74.00;;;;;;2070467;28;20199;-84
2021/05/03 00:45:56;;;;;;;1.55;1.05;;;5.70;74.20;;;;;;2063620;28;20765;-85
2021/05/03 00:46:58;;;;;;;3.25;1.20;;;5.60;74.20;;;;;;2069520;28;20030;-85
2021/05/03 00:47:59;;;;;;;1.95;1.40;;;5.60;74.30;;;;;;2077741;28;20030;-85
2021/05/03 00:49:00;;;;;;;1.75;1.10;;;5.60;74.30;;;;;;2078218;28;20037;-85
2021/05/03 00:50:01;;;;;;;1.75;1.23;;;5.60;74.40;;;;;;2070561;28;20034;-84
2021/05/03 00:51:02;;;;;;;2.28;1.33;;;5.60;74.40;;;;;;2081533;28;20037;-84
2021/05/03 00:52:02;;;;;;;2.85;1.40;;;5.60;74.50;;;;;;2092815;28;20048;-85
2021/05/03 00:53:04;;;;;;;1.95;1.20;;;5.60;74.50;;;;;;2075943;28;20040;-84
2021/05/03 00:54:05;;;;;;;2.00;1.20;;;5.60;74.60;;;;;;2078576;28;20029;-85
2021/05/03 00:55:07;;;;;;;3.30;1.27;;;5.50;74.60;;;;;;2079838;28;20034;-84
2021/05/03 00:56:08;;;;;;;2.92;1.40;;;5.50;74.70;;;;;;2077741;28;20087;-84
2021/05/03 00:57:09;;;;;;;2.50;1.40;;;5.50;74.70;;;;;;2076787;28;20471;-83
2021/05/03 00:58:10;;;;;;;2.08;1.27;;;5.50;74.80;;;;;;2069465;28;20545;-84
2021/05/03 00:59:11;;;;;;;1.90;1.40;;;5.50;74.90;;;;;;2068178;28;20447;-84
2021/05/03 01:00:13;;;;;;;3.85;1.60;;;5.50;75.00;;;;;;2068946;28;20084;-83
2021/05/03 01:01:13;;;;;;;1.98;1.25;;;5.50;75.00;;;;;;2087046;28;20119;-84
2021/05/03 01:02:14;;;;;;;2.72;1.52;;;5.50;75.00;;;;;;2088421;28;20021;-83
2021/05/03 01:03:15;;;;;;;2.42;1.70;;;5.50;75.70;;;;;;2076420;28;20037;-84
2021/05/03 01:04:15;;;;;;;2.80;1.48;;;5.50;75.10;;;;;;2077635;28;20025;-84
2021/05/03 01:05:17;;;;;;;2.22;1.48;;;5.50;75.10;;;;;;2070297;28;20120;-83
2021/05/03 01:06:18;;;;;;;2.15;1.20;;;5.50;75.10;;;;;;2078714;28;20032;-84
2021/05/03 01:07:19;;;;;;;2.00;1.23;;;5.50;75.20;;;;;;2087079;28;20025;-84
2021/05/03 01:08:20;;;;;;;2.70;1.48;;;5.50;75.20;;;;;;2071380;28;20054;-83
2021/05/03 01:09:20;;;;;;;2.33;1.38;;;5.50;75.20;;;;;;2063092;28;20417;-84
2021/05/03 01:10:21;;;;;;;2.28;1.30;;;5.50;75.30;;;;;;2061881;28;20023;-84
2021/05/03 01:11:22;;;;;;;2.38;1.40;;;5.50;75.30;;;;;;2064769;28;20025;-84
2021/05/03 01:12:22;;;;;;;2.08;1.30;;;5.50;75.30;;;;;;2086937;28;20055;-84
2021/05/03 01:13:23;;;;;;;2.17;1.30;;;5.50;75.40;;;;;;2083037;28;20044;-85
2021/05/03 01:14:24;;;;;;;3.03;1.52;;;5.50;75.40;;;;;;2067250;28;20083;-85
2021/05/03 01:15:25;;;;;;;2.72;1.50;;;5.50;75.40;;;;;;2075024;28;20088;-85
2021/05/03 01:16:26;;;;;;;2.10;1.50;;;5.50;75.40;;;;;;2084387;28;20033;-85
2021/05/03 01:17:31;;;;;;;2.10;1.30;;;5.50;75.40;;;;;;2077709;28;20025;-85
2021/05/03 01:18:35;;;;;;;1.70;1.40;;;5.40;75.40;;;;;;2080222;28;20493;-85
2021/05/03 01:19:36;;;;;;;3.28;1.58;;;5.40;75.40;;;;;;2075601;28;20085;-86
2021/05/03 01:20:38;;;;;;;2.95;1.50;;;5.40;75.50;;;;;;2063441;28;20535;-85
2021/05/03 01:21:39;;;;;;;3.30;1.65;;;5.40;75.50;;;;;;2066919;28;20388;-85
2021/05/03 01:22:40;;;;;;;2.60;1.40;;;5.40;75.60;;;;;;2068207;28;20326;-85
2021/05/03 01:23:40;;;;;;;1.77;1.30;;;5.40;75.70;;;;;;2070333;28;20026;-85
2021/05/03 01:24:41;;;;;;;3.13;1.50;;;5.40;75.80;;;;;;2066708;28;20061;-85
2021/05/03 01:25:42;;;;;;;2.40;1.60;;;5.40;75.80;;;;;;2075058;28;20117;-86
2021/05/03 01:26:43;;;;;;;2.97;1.60;;;5.40;75.80;;;;;;2059268;28;20031;-85
2021/05/03 01:27:44;;;;;;;2.17;1.55;;;5.40;75.80;;;;;;2073499;28;20026;-85
2021/05/03 01:28:45;;;;;;;2.95;1.60;;;5.40;75.80;;;;;;2071036;28;20150;-85
2021/05/03 01:29:46;;;;;;;2.72;1.52;;;5.40;75.80;;;;;;2065181;28;20030;-85
2021/05/03 01:30:48;;;;;;;3.08;1.67;;;5.40;75.80;;;;;;2075988;28;20028;-85
2021/05/03 01:31:50;;;;;;;2.67;1.58;;;5.30;75.80;;;;;;2075744;28;20068;-85
2021/05/03 01:32:51;;;;;;;2.75;1.48;;;5.30;75.90;;;;;;2070292;28;20026;-85
2021/05/03 01:33:51;;;;;;;2.80;1.58;;;5.30;75.90;;;;;;2084172;28;20033;-86
2021/05/03 01:34:52;;;;;;;2.35;1.60;;;5.30;76.00;;;;;;2077795;28;20021;-85
2021/05/03 01:35:53;;;;;;;2.53;1.60;;;5.30;76.10;;;;;;2069569;28;20034;-85
2021/05/03 01:36:54;;;;;;;2.60;1.55;;;5.30;76.20;;;;;;2063770;28;20122;-85
2021/05/03 01:37:56;;;;;;;2.33;1.70;;;5.30;76.30;;;;;;2078070;28;20573;-85
2021/05/03 01:38:57;;;;;;;2.50;1.45;;;5.30;76.40;;;;;;2081252;28;20025;-85
2021/05/03 01:39:57;;;;;;;2.30;1.42;;;5.20;76.40;;;;;;2086383;28;20595;-85
2021/05/03 01:40:58;;;;;;;2.63;1.58;;;5.20;76.50;;;;;;2083284;28;20499;-85
2021/05/03 01:42:00;;;;;;;2.75;1.83;;;5.20;76.50;;;;;;2079934;28;20112;-84
2021/05/03 01:43:22;;;;;;;2.92;1.80;;;5.20;76.40;;;;;;2085146;28;20510;-84
2021/05/03 01:44:22;;;;;;;2.78;1.60;;;5.20;76.50;;;;;;2085409;28;20065;-84
2021/05/03 01:45:25;;;;;;;2.45;1.55;;;5.30;76.50;;;;;;2076927;28;20033;-84
2021/05/03 01:46:28;;;;;;;2.67;1.65;;;5.20;76.50;;;;;;2079525;28;20033;-85
2021/05/03 01:47:29;;;;;;;2.97;1.65;;;5.20;76.50;;;;;;2091962;28;20080;-85
2021/05/03 01:48:31;;;;;;;2.90;1.70;;;5.20;76.60;;;;;;2079293;28;20369;-84
2021/05/03 01:49:32;;;;;;;3.65;1.85;;;5.20;76.60;;;;;;2078089;28;20056;-84
2021/05/03 01:50:35;;;;;;;3.05;1.65;;;5.20;76.60;;;;;;2070242;28;20113;-85
2021/05/03 01:51:37;;;;;;;3.53;2.05;;;5.20;76.70;;;;;;2061684;28;20053;-84
2021/05/03 01:52:38;;;;;;;3.42;1.90;;;5.30;76.80;;;;;;2087136;28;20028;-84
2021/05/03 01:53:39;;;;;;;4.15;2.00;;;5.20;76.80;;;;;;2094684;28;20145;-85
2021/05/03 01:54:39;;;;;;;3.47;1.70;;;5.20;76.80;;;;;;2086287;28;20033;-85
2021/05/03 01:55:40;;;;;;;3.58;1.80;;;5.20;76.80;;;;;;2083634;28;20025;-85
2021/05/03 01:56:41;;;;;;;3.17;1.83;;;5.20;76.90;;;;;;2080341;28;20060;-85
2021/05/03 01:57:41;;;;;;;2.88;1.70;;;5.20;76.90;;;;;;2083697;28;20429;-84
2021/05/03 01:58:42;;;;;;;3.17;1.98;;;5.20;76.90;;;;;;2070969;28;20030;-85
2021/05/03 01:59:43;;;;;;;2.97;1.75;;;5.30;77.00;;;;;;2076000;28;20133;-85
2021/05/03 02:00:44;;;;;;;4.03;2.00;;;5.20;76.80;;;;;;2069989;28;20037;-85
2021/05/03 02:01:45;;;;;;;3.40;1.77;;;5.30;77.00;;;;;;2080202;28;20057;-85
2021/05/03 02:02:49;;;;;;;2.90;1.70;;;5.20;76.90;;;;;;2087551;28;20021;-84
2021/05/03 02:03:50;;;;;;;3.10;1.98;;;5.20;76.90;;;;;;2070098;28;20040;-85
2021/05/03 02:04:50;;;;;;;3.00;1.50;;;5.20;76.90;;;;;;2063908;28;20458;-84
2021/05/03 02:05:52;;;;;;;3.65;1.75;;;5.20;77.00;;;;;;2064402;28;20070;-85
2021/05/03 02:06:52;;;;;;;2.80;1.73;;;5.20;77.60;;;;;;2077083;28;20025;-84
2021/05/03 02:08:12;;;;;;;3.75;1.77;;;5.20;77.00;;;;;;2088204;28;20021;-85
2021/05/03 02:09:12;;;;;;;3.65;1.90;;;5.20;77.10;;;;;;2075190;28;20470;-85
2021/05/03 02:10:13;;;;;;;2.35;1.67;;;5.20;77.10;;;;;;2060671;28;20034;-85
2021/05/03 02:11:14;;;;;;;3.03;1.70;;;5.10;77.10;;;;;;2066461;28;20508;-84
2021/05/03 02:12:15;;;;;;;2.83;1.77;;;5.10;77.20;;;;;;2073644;28;20030;-85
2021/05/03 02:13:16;;;;;;;2.72;1.80;;;5.10;77.20;;;;;;2078856;28;20017;-85
2021/05/03 02:14:16;;;;;;;3.08;1.90;;;5.10;77.30;;;;;;2078008;28;20030;-85
2021/05/03 02:15:17;;;;;;;3.55;2.00;;;5.20;77.40;;;;;;2070569;28;20057;-85
2021/05/03 02:16:18;;;;;;;2.88;1.88;;;5.10;77.30;;;;;;2073246;28;20034;-84
2021/05/03 02:17:19;;;;;;;2.63;1.80;;;5.10;77.40;;;;;;2071120;28;20096;-84
2021/05/03 02:18:19;;;;;;;3.13;2.10;;;5.10;77.40;;;;;;2064224;28;20174;-85
2021/05/03 02:19:20;;;;;;;3.65;2.30;;;5.10;77.40;;;;;;2067379;28;20140;-84
2021/05/03 02:20:21;;;;;;;3.63;2.20;;;5.10;77.50;;;;;;2065011;28;20141;-84
2021/05/03 02:21:22;;;;;;;5.10;1.95;;;5.10;77.50;;;;;;2065614;28;20029;-85
2021/05/03 02:22:22;;;;;;;3.65;1.83;;;5.10;77.50;;;;;;2068622;28;20389;-85
2021/05/03 02:23:23;;;;;;;3.03;2.05;;;5.10;77.50;;;;;;2060275;28;20046;-85
2021/05/03 02:24:24;;;;;;;3.38;2.00;;;5.10;77.60;;;;;;2072491;28;20029;-85
2021/05/03 02:25:24;;;;;;;3.13;2.00;;;5.00;78.20;;;;;;2064706;28;20023;-85
2021/05/03 02:26:25;;;;;;;3.13;1.95;;;5.10;78.20;;;;;;2079702;28;20442;-85
2021/05/03 02:27:26;;;;;;;3.47;2.10;;;5.10;77.60;;;;;;2069152;28;20093;-85
2021/05/03 02:28:26;;;;;;;4.00;2.08;;;5.00;77.60;;;;;;2065713;28;20034;-85
2021/05/03 02:29:27;;;;;;;3.60;2.22;;;5.10;77.60;;;;;;2075915;28;20029;-85
2021/05/03 02:30:28;;;;;;;3.35;2.05;;;5.10;77.70;;;;;;2083787;28;20068;-84
2021/05/03 02:31:28;;;;;;;3.13;2.10;;;5.00;77.60;;;;;;2066279;28;20026;-85
2021/05/03 02:32:29;;;;;;;4.00;2.17;;;5.00;77.70;;;;;;2062870;28;20129;-85
2021/05/03 02:33:29;;;;;;;3.88;2.25;;;5.00;77.80;;;;;;2071131;28;20026;-85
2021/05/03 02:34:30;;;;;;;3.85;2.38;;;5.00;77.80;;;;;;2075988;28;20034;-85
2021/05/03 02:35:33;;;;;;;3.38;2.25;;;5.00;77.80;;;;;;2067841;28;20854;-85
2021/05/03 02:36:34;;;;;;;3.53;2.20;;;5.00;77.80;;;;;;2076885;28;20026;-85
2021/05/03 02:37:35;;;;;;;4.30;2.20;;;5.00;77.80;;;;;;2088862;28;20028;-85
2021/05/03 02:38:35;;;;;;;3.70;2.20;;;5.00;77.80;;;;;;2096755;28;20025;-86
2021/05/03 02:39:36;;;;;;;4.10;2.47;;;5.00;77.90;;;;;;2085429;28;20022;-85
2021/05/03 02:40:37;;;;;;;4.70;2.45;;;5.00;77.90;;;;;;2070750;28;20033;-85
2021/05/03 02:41:37;;;;;;;3.45;2.15;;;5.00;77.90;;;;;;2076330;28;20116;-85
2021/05/03 02:42:38;;;;;;;3.75;2.10;;;5.00;78.00;;;;;;2063294;28;20026;-85
2021/05/03 02:43:39;;;;;;;3.75;2.45;;;5.00;78.00;;;;;;2063710;28;20113;-85
2021/05/03 02:44:40;;;;;;;3.40;2.20;;;5.00;78.00;;;;;;2071309;28;20189;-85
2021/05/03 02:45:41;;;;;;;3.40;2.40;;;5.00;78.00;;;;;;2087745;28;20590;-85
2021/05/03 02:46:41;;;;;;;3.50;2.50;;;5.00;78.00;;;;;;2072114;28;20034;-85
2021/05/03 02:47:43;;;;;;;4.13;2.42;;;5.00;78.10;;;;;;2065141;28;20405;-84
2021/05/03 02:48:44;;;;;;;3.85;2.60;;;5.00;78.10;;;;;;2076917;28;20038;-85
2021/05/03 02:49:44;;;;;;;3.55;2.45;;;5.00;78.10;;;;;;2079518;28;20108;-84
2021/05/03 02:50:45;;;;;;;3.47;2.25;;;5.00;78.10;;;;;;2073356;28;20049;-83
2021/05/03 02:51:46;;;;;;;3.53;2.30;;;5.00;78.10;;;;;;2078158;28;20033;-84
2021/05/03 02:52:46;;;;;;;3.88;2.58;;;5.00;78.10;;;;;;2083670;28;20044;-84
2021/05/03 02:53:47;;;;;;;4.75;2.65;;;5.00;78.10;;;;;;2080434;28;20044;-84
2021/05/03 02:54:48;;;;;;;3.60;2.40;;;5.00;78.10;;;;;;2093298;28;20038;-84
2021/05/03 02:55:49;;;;;;;3.97;2.70;;;5.00;78.10;;;;;;2088756;28;20036;-84
2021/05/03 02:56:49;;;;;;;4.88;2.72;;;5.00;78.10;;;;;;2075498;28;20424;-84
2021/05/03 02:57:51;;;;;;;4.20;2.55;;;5.00;78.10;;;;;;2077595;28;20068;-84
2021/05/03 02:58:51;;;;;;;3.63;2.55;;;5.00;78.10;;;;;;2078648;28;20021;-84
2021/05/03 02:59:52;;;;;;;4.15;2.70;;;5.00;78.20;;;;;;2073014;28;20036;-84
2021/05/03 03:00:52;;;;;;;3.85;2.55;;;5.00;78.20;;;;;;2065680;28;20058;-84
2021/05/03 03:01:53;;;;;;;4.47;2.75;;;5.00;78.20;;;;;;2072469;28;20017;-85
2021/05/03 03:02:54;;;;;;;3.80;2.50;;;5.00;78.20;;;;;;2070282;28;20040;-84
2021/05/03 03:03:55;;;;;;;3.75;2.42;;;5.00;78.20;;;;;;2079432;28;20041;-85
2021/05/03 03:04:56;;;;;;;3.78;2.50;;;5.00;78.30;;;;;;2087896;28;20068;-85
2021/05/03 03:05:57;;;;;;;4.70;2.90;;;5.00;78.90;;;;;;2081479;28;20057;-85
2021/05/03 03:06:58;;;;;;;4.50;2.70;;;5.00;78.30;;;;;;2071977;28;20084;-84
2021/05/03 03:08:02;;;;;;;4.30;2.70;;;4.90;78.90;;;;;;2055405;28;20086;-84
2021/05/03 03:09:04;;;;;;;5.25;2.85;;;5.00;78.40;;;;;;2067417;28;20113;-84
2021/05/03 03:10:05;;;;;;;4.80;2.80;;;5.00;78.40;;;;;;2088172;28;20089;-85
2021/05/03 03:11:06;;;;;;;3.70;2.58;;;4.90;78.40;;;;;;2069683;28;20036;-84
2021/05/03 03:12:09;;;;;;;4.10;2.65;;;4.90;79.10;;;;;;2064298;28;20408;-85
2021/05/03 03:13:10;;;;;;;4.20;2.60;;;4.90;78.50;;;;;;2081665;28;20038;-85
2021/05/03 03:14:11;;;;;;;4.53;2.75;;;4.90;78.60;;;;;;2086455;28;20064;-85
2021/05/03 03:15:14;;;;;;;3.45;2.42;;;4.90;78.60;;;;;;2092638;28;20029;-85
2021/05/03 03:16:18;;;;;;;4.35;2.78;;;4.80;78.70;;;;;;2085409;28;20053;-85
2021/05/03 03:17:18;;;;;;;4.95;2.72;;;4.90;78.70;;;;;;2077689;28;20029;-84
2021/05/03 03:18:20;;;;;;;4.40;2.72;;;4.90;78.70;;;;;;2073123;28;20140;-86
2021/05/03 03:19:21;;;;;;;4.47;2.88;;;4.80;79.30;;;;;;2073023;28;20026;-85
2021/05/03 03:20:21;;;;;;;4.97;3.08;;;4.80;78.70;;;;;;2088973;28;20025;-85
2021/05/03 03:21:24;;;;;;;4.43;3.00;;;4.80;78.70;;;;;;2088870;28;20126;-85
2021/05/03 03:22:25;;;;;;;4.28;2.75;;;4.80;78.80;;;;;;2073641;28;20026;-85
2021/05/03 03:23:25;;;;;;;4.88;3.10;;;4.80;78.80;;;;;;2083131;28;20506;-86
2021/05/03 03:24:26;;;;;;;4.70;2.83;;;4.80;78.80;;;;;;2083838;28;20034;-85
2021/05/03 03:25:27;;;;;;;4.88;3.05;;;4.80;78.90;;;;;;2080347;28;20026;-85
2021/05/03 03:26:28;;;;;;;4.45;3.00;;;4.70;78.80;;;;;;2080805;28;20064;-86
2021/05/03 03:27:28;;;;;;;4.82;3.03;;;4.70;78.80;;;;;;2078052;28;20019;-86
2021/05/03 03:28:29;;;;;;;4.78;3.20;;;4.70;78.90;;;;;;2073763;28;20080;-85
2021/05/03 03:29:30;;;;;;;5.43;3.33;;;4.70;78.90;;;;;;2072119;28;20026;-86
2021/05/03 03:30:31;;;;;;;4.70;2.97;;;4.70;78.90;;;;;;2073708;28;20488;-85
2021/05/03 03:31:32;;;;;;;4.15;2.90;;;4.70;79.00;;;;;;2062048;28;20034;-86
2021/05/03 03:32:32;;;;;;;5.30;3.33;;;4.70;79.10;;;;;;2066814;28;20392;-85
2021/05/03 03:33:33;;;;;;;4.07;2.67;;;4.70;79.10;;;;;;2078650;28;20056;-86
2021/05/03 03:34:34;;;;;;;5.07;2.97;;;4.70;79.10;;;;;;2058964;28;20397;-85
2021/05/03 03:35:34;;;;;;;5.53;2.97;;;4.70;79.10;;;;;;2070813;28;20488;-86
2021/05/03 03:36:35;;;;;;;5.07;3.10;;;4.70;79.20;;;;;;2089673;28;20037;-86
2021/05/03 03:37:36;;;;;;;4.47;2.97;;;4.70;79.20;;;;;;2070952;28;20037;-85
2021/05/03 03:38:37;;;;;;;5.70;3.30;;;4.70;79.20;;;;;;2074365;28;20033;-86
2021/05/03 03:39:37;;;;;;;4.93;2.88;;;4.70;79.20;;;;;;2077886;28;20082;-85
2021/05/03 03:40:38;;;;;;;4.00;2.75;;;4.70;79.20;;;;;;2070732;28;20113;-85
2021/05/03 03:41:39;;;;;;;4.22;2.85;;;4.70;79.20;;;;;;2061734;28;20030;-85
2021/05/03 03:42:40;;;;;;;4.82;3.08;;;4.70;79.20;;;;;;2080746;28;20045;-85
2021/05/03 03:43:40;;;;;;;4.68;3.22;;;4.70;79.20;;;;;;2086740;28;20036;-85
2021/05/03 03:44:41;;;;;;;5.43;3.20;;;4.70;79.20;;;;;;2079539;28;20381;-85
2021/05/03 03:45:42;;;;;;;5.95;3.13;;;4.70;79.20;;;;;;2085927;28;20032;-85
2021/05/03 03:46:42;;;;;;;5.22;3.30;;;4.70;79.20;;;;;;2081407;28;20390;-85
2021/05/03 03:47:44;;;;;;;4.78;3.10;;;4.70;79.20;;;;;;2079201;28;20504;-85
2021/05/03 03:48:44;;;;;;;4.97;3.17;;;4.70;79.20;;;;;;2073537;28;20038;-85
2021/05/03 03:49:45;;;;;;;4.57;3.08;;;4.70;79.30;;;;;;2075873;28;20037;-85
2021/05/03 03:50:45;;;;;;;5.10;3.08;;;4.70;79.30;;;;;;2071520;28;20018;-85
2021/05/03 03:51:46;;;;;;;5.53;3.45;;;4.70;79.40;;;;;;2072114;28;20480;-84
2021/05/03 03:52:47;;;;;;;5.13;3.13;;;4.70;79.40;;;;;;2072926;28;20037;-85
2021/05/03 03:53:47;;;;;;;4.93;2.90;;;4.70;79.40;;;;;;2071822;28;20113;-85
2021/05/03 03:54:48;;;;;;;4.85;3.35;;;4.70;79.40;;;;;;2063042;28;21705;-84
2021/05/03 03:55:49;;;;;;;5.72;3.17;;;4.70;79.50;;;;;;2055444;28;20505;-84
2021/05/03 03:56:49;;;;;;;5.43;3.30;;;4.70;79.40;;;;;;2052880;28;20553;-85
2021/05/03 03:57:50;;;;;;;4.63;3.10;;;4.80;79.50;;;;;;2055411;28;20513;-84
2021/05/03 03:58:51;;;;;;;4.88;3.10;;;4.70;79.40;;;;;;2055072;28;20039;-84
2021/05/03 03:59:56;;;;;;;5.10;3.40;;;4.80;79.50;;;;;;2066344;28;20117;-84
2021/05/03 04:00:56;;;;;;;5.40;3.50;;;4.80;79.40;;;;;;2069155;28;20040;-84
2021/05/03 04:01:57;;;;;;;4.32;2.88;;;4.80;79.40;;;;;;2070661;28;20110;-84
2021/05/03 04:02:58;;;;;;;4.80;3.10;;;4.80;79.30;;;;;;2072091;28;20045;-85
2021/05/03 04:04:03;;;;;;;4.85;3.10;;;4.80;79.90;;;;;;2069456;28;20108;-84
2021/05/03 04:05:13;;;;;;;5.07;2.88;;;4.80;79.30;;;;;;2076142;28;20618;-84
2021/05/03 04:08:42;;;;;;;5.60;3.20;;;4.90;79.20;;;;;;2086681;28;20028;-84
2021/05/03 04:10:05;;;;;;;4.68;3.03;;;4.90;79.70;;;;;;2074750;28;20104;-84
2021/05/03 04:23:22;;;;;;;4.57;2.83;;;5.00;78.60;;;;;;2070589;28;20030;-85
2021/05/03 04:24:50;;;;;;;4.68;3.08;;;5.00;78.70;;;;;;2067195;28;20034;-83
2021/05/03 04:25:47;;;;;;;5.53;3.05;;;5.00;78.70;;;;;;2074186;28;20038;-83
2021/05/03 04:26:47;;;;;;;4.82;3.28;;;4.90;78.60;;;;;;2081345;28;20582;-83
2021/05/03 04:27:48;;;;;;;4.75;2.95;;;5.00;78.70;;;;;;2069850;28;20030;-83
2021/05/03 04:28:51;;;;;;;5.43;2.92;;;4.90;78.70;;;;;;2061346;28;20061;-83
2021/05/03 04:29:51;;;;;;;5.35;3.25;;;4.90;78.80;;;;;;2070917;28;20116;-83
2021/05/03 04:30:52;;;;;;;4.97;3.33;;;5.00;78.80;;;;;;2076326;28;20492;-83
2021/05/03 04:31:52;;;;;;;5.50;3.30;;;5.00;78.90;;;;;;2063737;28;20047;-83
2021/05/03 04:32:53;;;;;;;4.97;3.35;;;5.00;78.90;;;;;;2064180;28;20018;-83
2021/05/03 04:33:54;;;;;;;5.50;3.53;;;5.00;78.90;;;;;;2055717;28;20034;-83
2021/05/03 04:34:54;;;;;;;5.38;3.50;;;5.00;78.90;;;;;;2079425;28;20024;-83
2021/05/03 04:35:55;;;;;;;5.72;3.97;;;5.00;78.90;;;;;;2077702;28;20479;-84
2021/05/03 04:36:55;;;;;;;5.50;3.65;;;5.00;78.90;;;;;;2070264;28;20161;-84
2021/05/03 04:37:56;;;;;;;5.90;3.80;;;5.00;78.90;;;;;;2063557;28;20041;-83
2021/05/03 04:38:57;;;;;;;6.22;3.78;;;5.00;78.90;;;;;;2072226;28;20017;-84
2021/05/03 04:39:58;;;;;;;6.05;4.20;;;5.00;78.90;;;;;;2066851;28;20120;-83
2021/05/03 04:40:58;;;;;;;5.93;3.80;;;5.00;78.80;;;;;;2056879;28;20031;-83
2021/05/03 04:41:59;;;;;;;6.43;4.25;;;5.10;78.90;;;;;;2060194;28;20019;-83
2021/05/03 04:43:01;;;;;;;5.45;3.78;;;5.10;78.80;;;;;;2062145;28;20034;-84
2021/05/03 04:44:01;;;;;;;5.75;3.95;;;5.00;78.70;;;;;;2062381;28;20022;-83
2021/05/03 04:45:03;;;;;;;5.70;4.00;;;5.00;78.70;;;;;;2059041;28;20026;-83
2021/05/03 04:46:05;;;;;;;5.63;4.10;;;5.10;78.70;;;;;;2068701;28;20105;-83
2021/05/03 04:47:05;;;;;;;7.85;4.20;;;5.10;78.70;;;;;;2074630;28;20029;-84
2021/05/03 04:48:06;;;;;;;6.68;4.60;;;5.10;78.60;;;;;;2063841;28;20473;-84
2021/05/03 04:49:07;;;;;;;6.00;4.57;;;5.10;78.60;;;;;;2067725;28;20037;-84
2021/05/03 04:50:11;;;;;;;5.90;4.20;;;5.10;78.60;;;;;;2055603;28;20027;-83
2021/05/03 04:51:11;;;;;;;6.90;4.57;;;5.10;78.60;;;;;;2067474;28;20526;-83
2021/05/03 04:52:13;;;;;;;6.05;4.60;;;5.10;78.60;;;;;;2071804;28;20426;-84
2021/05/03 04:53:13;;;;;;;6.18;4.43;;;5.20;78.60;;;;;;2087384;28;20021;-83
2021/05/03 04:54:14;;;;;;;5.45;4.20;;;5.20;78.60;;;;;;2072976;28;20088;-83
2021/05/03 04:55:14;;;;;;;5.75;3.90;;;5.20;78.60;;;;;;2063727;28;20046;-83
2021/05/03 04:56:15;;;;;;;6.63;4.10;;;5.20;78.50;;;;;;2085790;28;20052;-83
2021/05/03 04:57:16;;;;;;;7.35;4.03;;;5.20;78.50;;;;;;2082832;28;20089;-83
2021/05/03 04:58:17;;;;;;;6.70;4.22;;;5.20;78.40;;;;;;2079594;28;20025;-84
2021/05/03 04:59:18;;;;;;;5.28;3.78;;;5.20;78.40;;;;;;2087625;28;20021;-84
2021/05/03 05:00:19;;;;;;;7.30;4.00;;;5.20;78.40;;;;;;2078867;28;20123;-83
2021/05/03 05:01:20;;;;;;;6.05;4.03;;;5.30;78.40;;;;;;2080008;28;20502;-83
2021/05/03 05:02:20;;;;;;;6.03;4.00;;;5.30;78.40;;;;;;2079498;28;20047;-83
2021/05/03 05:03:21;;;;;;;6.35;4.43;;;5.30;78.30;;;;;;2068436;28;20030;-83
2021/05/03 05:04:22;;;;;;;6.72;4.45;;;5.30;78.30;;;;;;2071974;28;20442;-83
2021/05/03 05:05:24;;;;;;;7.00;4.57;;;5.30;78.20;;;;;;2083216;28;20025;-83
2021/05/03 05:06:25;;;;;;;6.03;4.13;;;5.30;78.20;;;;;;2080053;28;20037;-83
2021/05/03 05:07:26;;;;;;;6.15;4.25;;;5.30;78.10;;;;;;2071826;28;20109;-83
2021/05/03 05:08:26;;;;;;;7.00;4.43;;;5.30;78.10;;;;;;2086559;28;20029;-84
2021/05/03 05:09:27;;;;;;;6.40;4.30;;;5.40;78.10;;;;;;2079928;28;20475;-83
2021/05/03 05:10:28;;;;;;;6.15;4.50;;;5.40;78.10;;;;;;2071843;28;20041;-83
2021/05/03 05:11:28;;;;;;;7.07;4.35;;;5.40;78.00;;;;;;2063535;28;20030;-84
2021/05/03 05:12:29;;;;;;;6.18;4.03;;;5.40;78.00;;;;;;2074896;28;20053;-83
2021/05/03 05:13:29;;;;;;;6.07;4.07;;;5.40;77.90;;;;;;2085670;28;20025;-84
2021/05/03 05:14:30;;;;;;;5.80;4.15;;;5.50;78.00;;;;;;2080837;28;20129;-84
2021/05/03 05:15:31;;;;;;;6.30;4.28;;;5.50;77.90;;;;;;2093949;28;20032;-83
2021/05/03 05:16:32;;;;;;;6.03;4.32;;;5.50;77.90;;;;;;2083270;28;20046;-83
2021/05/03 05:17:33;;;;;;;6.82;4.38;;;5.50;77.80;;;;;;2087946;28;20056;-83
2021/05/03 05:18:34;;;;;;;7.95;4.63;;;5.50;77.80;;;;;;2088271;28;20414;-84
2021/05/03 05:19:35;;;;;;;6.47;4.45;;;5.50;77.80;;;;;;2086173;28;20033;-83
2021/05/03 05:20:36;;;;;;;6.07;4.38;;;5.50;77.80;;;;;;2083806;28;20187;-82
2021/05/03 05:21:37;;;;;;;6.35;4.13;;;5.50;77.80;;;;;;2088344;28;20466;-83
2021/05/03 05:22:38;;;;;;;6.30;4.28;;;5.50;77.80;;;;;;2072369;28;20038;-83
2021/05/03 05:23:39;;;;;;;6.38;4.40;;;5.50;77.70;;;;;;2070779;28;20477;-83
2021/05/03 05:24:39;;;;;;;7.68;4.63;;;5.60;77.80;;;;;;2078796;28;20079;-84
2021/05/03 05:25:40;;;;;;;7.78;4.03;;;5.60;77.70;;;;;;2081153;28;20075;-83
2021/05/03 05:26:41;;;;;;;6.95;4.55;;;5.60;77.70;;;;;;2068437;28;20520;-84
2021/05/03 05:27:41;;;;;;;7.45;4.85;;;5.60;77.60;;;;;;2057497;28;20468;-84
2021/05/03 05:28:42;;;;;;;7.00;4.70;;;5.60;77.50;;;;;;2061607;28;20519;-83
2021/05/03 05:29:43;;;;;;;7.88;4.70;;;5.60;77.50;;;;;;2079162;28;20028;-83
2021/05/03 05:30:43;;;;;;;6.88;4.50;;;5.60;77.40;;;;;;2071987;28;20042;-82
2021/05/03 05:31:44;;;;;;;6.82;4.35;;;5.60;77.50;;;;;;2080831;28;20042;-82
2021/05/03 05:32:45;;;;;;;6.70;4.68;;;5.60;77.40;;;;;;2095009;28;20070;-82
2021/05/03 05:33:46;;;;;;;6.43;4.43;;;5.60;77.40;;;;;;2074301;28;20523;-82
2021/05/03 05:34:46;;;;;;;7.05;4.35;;;5.60;77.40;;;;;;2059469;28;20025;-83
2021/05/03 05:35:47;;;;;;;7.03;4.82;;;5.60;77.40;;;;;;2050136;28;20032;-82
2021/05/03 05:36:47;;;;;;;6.53;4.57;;;5.60;77.30;;;;;;2066085;28;20030;-83
2021/05/03 05:37:48;;;;;;;6.60;4.45;;;5.70;77.30;;;;;;2076197;28;20495;-83